createdAt,value
2022-11-01T00:01:20.269Z,100825.97
2022-11-01T00:03:46.771Z,100816.97
2022-11-01T00:06:13.344Z,100809.03
2022-11-01T00:08:39.907Z,100807.69
2022-11-01T00:11:16.106Z,100802.66
2022-11-01T00:13:45.882Z,100802.91
2022-11-01T00:16:13.299Z,100798.69
2022-11-01T00:18:40.362Z,100782.50
2022-11-01T00:21:06.863Z,100780.69
2022-11-01T00:23:33.731Z,100771.47
2022-11-01T00:26:01.421Z,100769.91
2022-11-01T00:28:28.924Z,100769.91
2022-11-01T00:30:57.279Z,100772.00
2022-11-01T00:33:24.759Z,100773.88
2022-11-01T00:35:51.441Z,100766.72
2022-11-01T00:38:19.091Z,100776.25
2022-11-01T00:40:45.871Z,100760.09
2022-11-01T00:43:12.825Z,100755.09
2022-11-01T00:45:39.348Z,100756.13
2022-11-01T00:48:06.122Z,100751.88
2022-11-01T00:50:32.658Z,100744.97
2022-11-01T00:52:59.130Z,100742.81
2022-11-01T00:55:26.224Z,100737.69
2022-11-01T00:57:52.885Z,100744.31
2022-11-01T01:00:19.831Z,100743.44
2022-11-01T01:02:46.321Z,100741.28
2022-11-01T01:05:12.916Z,100742.66
2022-11-01T01:07:39.456Z,100744.72
2022-11-01T01:10:07.176Z,100749.53
2022-11-01T01:12:33.660Z,100751.16
2022-11-01T01:15:00.929Z,100747.44
2022-11-01T01:17:29.944Z,100756.38
2022-11-01T01:19:59.426Z,100757.97
2022-11-01T01:22:27.385Z,100763.78
2022-11-01T01:24:54.295Z,100755.59
2022-11-01T01:27:20.821Z,100756.97
2022-11-01T01:29:47.408Z,100746.13
2022-11-01T01:32:16.225Z,100748.06
2022-11-01T01:34:42.779Z,100753.63
2022-11-01T01:37:10.705Z,100747.06
2022-11-01T01:39:38.026Z,100748.25
2022-11-01T01:42:16.680Z,100752.25
2022-11-01T01:44:52.045Z,100748.53
2022-11-01T01:47:24.923Z,100754.09
2022-11-01T01:50:15.127Z,100739.81
2022-11-01T01:53:04.371Z,100743.53
2022-11-01T01:56:03.606Z,100748.03
2022-11-01T01:58:39.942Z,100731.63
2022-11-01T02:01:06.553Z,100742.25
2022-11-01T02:03:37.082Z,100731.72
2022-11-01T02:06:16.889Z,100731.66
2022-11-01T02:08:47.538Z,100725.00
2022-11-01T02:11:16.434Z,100730.63
2022-11-01T02:13:42.996Z,100716.69
2022-11-01T02:16:27.485Z,100717.19
2022-11-01T02:19:16.404Z,100714.06
2022-11-01T02:21:57.047Z,100714.50
2022-11-01T02:24:46.847Z,100723.53
2022-11-01T02:27:28.632Z,100726.91
2022-11-01T02:30:13.954Z,100724.38
2022-11-01T02:33:05.544Z,100720.59
2022-11-01T02:36:01.412Z,100726.03
2022-11-01T02:38:37.907Z,100718.13
2022-11-01T02:41:23.401Z,100727.94
2022-11-01T02:44:18.200Z,100722.34
2022-11-01T02:47:00.415Z,100718.88
2022-11-01T02:49:59.986Z,100722.31
2022-11-01T02:53:29.343Z,100729.81
2022-11-01T02:55:56.301Z,100720.16
2022-11-01T02:58:27.409Z,100722.16
2022-11-01T03:00:55.576Z,100721.53
2022-11-01T03:03:32.732Z,100717.75
2022-11-01T03:06:12.092Z,100718.13
2022-11-01T03:08:45.406Z,100721.16
2022-11-01T03:11:16.629Z,100730.13
2022-11-01T03:14:10.697Z,100729.63
2022-11-01T03:16:52.488Z,100730.91
2022-11-01T03:19:46.210Z,100728.66
2022-11-01T03:22:24.977Z,100719.59
2022-11-01T03:25:31.057Z,100725.06
2022-11-01T03:28:03.808Z,100731.25
2022-11-01T03:30:34.935Z,100724.63
2022-11-01T03:33:02.258Z,100726.34
2022-11-01T03:35:36.836Z,100723.69
2022-11-01T03:38:10.180Z,100726.44
2022-11-01T03:40:43.148Z,100730.00
2022-11-01T03:43:15.209Z,100725.78
2022-11-01T03:45:42.073Z,100729.63
2022-11-01T03:48:08.883Z,100732.22
2022-11-01T03:50:35.461Z,100736.88
2022-11-01T03:53:02.028Z,100738.00
2022-11-01T03:55:28.563Z,100744.94
2022-11-01T03:57:57.758Z,100739.03
2022-11-01T04:00:26.190Z,100750.19
2022-11-01T04:02:55.016Z,100756.56
2022-11-01T04:05:23.784Z,100769.38
2022-11-01T04:07:51.476Z,100760.34
2022-11-01T04:10:19.360Z,100765.81
2022-11-01T04:12:48.004Z,100781.97
2022-11-01T04:15:34.840Z,100786.03
2022-11-01T04:18:22.771Z,100783.31
2022-11-01T04:20:49.760Z,100787.47
2022-11-01T04:23:16.628Z,100784.00
2022-11-01T04:25:46.636Z,100789.16
2022-11-01T04:28:16.735Z,100799.75
2022-11-01T04:30:43.812Z,100802.25
2022-11-01T04:33:10.902Z,100803.91
2022-11-01T04:35:40.662Z,100819.09
2022-11-01T04:38:07.216Z,100812.97
2022-11-01T04:40:34.271Z,100816.13
2022-11-01T04:43:01.023Z,100819.00
2022-11-01T04:45:27.541Z,100825.25
2022-11-01T04:48:08.014Z,100838.72
2022-11-01T04:50:35.315Z,100836.19
2022-11-01T04:53:02.352Z,100847.81
2022-11-01T04:55:29.482Z,100851.97
2022-11-01T04:57:56.647Z,100857.47
2022-11-01T05:00:24.056Z,100864.88
2022-11-01T05:02:51.209Z,100863.38
2022-11-01T05:05:19.153Z,100873.44
2022-11-01T05:07:45.638Z,100885.09
2022-11-01T05:10:12.246Z,100900.00
2022-11-01T05:12:38.733Z,100897.19
2022-11-01T05:15:05.923Z,100903.13
2022-11-01T05:17:32.416Z,100911.22
2022-11-01T05:19:58.915Z,100923.63
2022-11-01T05:22:25.384Z,100931.78
2022-11-01T05:24:52.963Z,100941.59
2022-11-01T05:27:19.506Z,100944.78
2022-11-01T05:29:45.986Z,100951.59
2022-11-01T05:32:12.463Z,100963.78
2022-11-01T05:34:38.939Z,100964.91
2022-11-01T05:37:05.439Z,100969.03
2022-11-01T05:39:31.904Z,100975.72
2022-11-01T05:42:01.697Z,100986.16
2022-11-01T05:44:29.621Z,100973.22
2022-11-01T05:46:56.265Z,100990.00
2022-11-01T05:49:22.886Z,100996.38
2022-11-01T05:51:49.359Z,101002.78
2022-11-01T05:54:15.896Z,101021.66
2022-11-01T05:56:42.375Z,101013.41
2022-11-01T05:59:08.857Z,101026.97
2022-11-01T06:01:35.401Z,101025.13
2022-11-01T06:04:02.050Z,101025.63
2022-11-01T06:06:29.732Z,101035.78
2022-11-01T06:08:57.759Z,101036.06
2022-11-01T06:11:27.507Z,101031.03
2022-11-01T06:13:58.054Z,101043.50
2022-11-01T06:16:26.229Z,101037.66
2022-11-01T06:18:54.004Z,101044.03
2022-11-01T06:21:26.081Z,101040.91
2022-11-01T06:23:55.730Z,101054.91
2022-11-01T06:26:22.263Z,101060.25
2022-11-01T06:28:48.765Z,101065.78
2022-11-01T06:31:15.332Z,101081.91
2022-11-01T06:33:41.845Z,101084.03
2022-11-01T06:36:08.427Z,101080.31
2022-11-01T06:38:35.533Z,101095.91
2022-11-01T06:41:02.139Z,101096.94
2022-11-01T06:43:28.640Z,101103.03
2022-11-01T06:45:55.165Z,101105.13
2022-11-01T06:48:21.772Z,101107.75
2022-11-01T06:50:48.347Z,101117.75
2022-11-01T06:53:14.891Z,101125.22
2022-11-01T06:55:41.420Z,101125.72
2022-11-01T06:58:09.206Z,101137.38
2022-11-01T07:00:35.732Z,101129.69
2022-11-01T07:03:05.830Z,101143.41
2022-11-01T07:05:37.135Z,101141.03
2022-11-01T07:08:07.315Z,101149.50
2022-11-01T07:10:35.887Z,101146.53
2022-11-01T07:13:04.593Z,101170.88
2022-11-01T07:15:31.457Z,101178.22
2022-11-01T07:18:03.687Z,101167.94
2022-11-01T07:20:32.175Z,101172.16
2022-11-01T07:23:06.185Z,101180.84
2022-11-01T07:25:33.377Z,101188.53
2022-11-01T07:27:59.901Z,101185.69
2022-11-01T07:30:28.170Z,101189.41
2022-11-01T07:33:01.238Z,101196.53
2022-11-01T07:35:28.369Z,101194.69
2022-11-01T07:38:00.618Z,101194.19
2022-11-01T07:40:28.820Z,101203.69
2022-11-01T07:43:00.547Z,101207.13
2022-11-01T07:45:29.674Z,101212.69
2022-11-01T07:48:04.769Z,101218.78
2022-11-01T07:50:33.321Z,101221.94
2022-11-01T07:53:15.166Z,101210.34
2022-11-01T07:55:42.195Z,101225.16
2022-11-01T07:58:10.078Z,101230.44
2022-11-01T08:00:37.987Z,101224.63
2022-11-01T08:03:10.458Z,101231.75
2022-11-01T08:05:37.072Z,101233.91
2022-11-01T08:08:04.434Z,101243.94
2022-11-01T08:10:31.768Z,101245.50
2022-11-01T08:13:07.615Z,101241.00
2022-11-01T08:15:34.856Z,101223.84
2022-11-01T08:18:01.863Z,101248.97
2022-11-01T08:20:28.746Z,101252.94
2022-11-01T08:22:55.730Z,101245.25
2022-11-01T08:25:22.243Z,101265.91
2022-11-01T08:27:48.745Z,101259.56
2022-11-01T08:30:17.650Z,101262.19
2022-11-01T08:32:44.183Z,101262.19
2022-11-01T08:35:14.188Z,101256.66
2022-11-01T08:37:50.650Z,101265.16
2022-11-01T08:40:18.240Z,101272.03
2022-11-01T08:42:44.764Z,101272.81
2022-11-01T08:45:12.138Z,101265.66
2022-11-01T08:47:39.736Z,101288.69
2022-11-01T08:50:11.153Z,101278.63
2022-11-01T08:52:38.918Z,101281.78
2022-11-01T08:55:06.336Z,101288.16
2022-11-01T08:57:33.237Z,101291.34
2022-11-01T08:59:59.892Z,101288.69
2022-11-01T09:02:26.622Z,101287.88
2022-11-01T09:04:53.272Z,101281.28
2022-11-01T09:07:20.476Z,101286.59
2022-11-01T09:09:46.995Z,101293.47
2022-11-01T09:12:14.606Z,101294.53
2022-11-01T09:14:41.984Z,101305.63
2022-11-01T09:17:08.886Z,101308.28
2022-11-01T09:19:35.523Z,101306.16
2022-11-01T09:22:02.070Z,101297.97
2022-11-01T09:24:28.629Z,101307.50
2022-11-01T09:26:55.118Z,101307.78
2022-11-01T09:29:21.716Z,101317.03
2022-11-01T09:31:52.886Z,101319.94
2022-11-01T09:34:20.348Z,101323.91
2022-11-01T09:36:47.680Z,101324.16
2022-11-01T09:39:16.413Z,101332.94
2022-11-01T09:41:47.678Z,101322.88
2022-11-01T09:44:23.494Z,101326.31
2022-11-01T09:46:58.138Z,101335.84
2022-11-01T09:49:33.167Z,101342.72
2022-11-01T09:52:00.024Z,101339.81
2022-11-01T09:54:28.470Z,101336.63
2022-11-01T09:57:05.694Z,101340.06
2022-11-01T09:59:38.746Z,101347.75
2022-11-01T10:02:39.475Z,101354.88
2022-11-01T10:05:18.629Z,101357.56
2022-11-01T10:07:59.586Z,101351.72
2022-11-01T10:10:38.234Z,101343.78
2022-11-01T10:13:14.726Z,101355.94
2022-11-01T10:15:46.938Z,101348.28
2022-11-01T10:19:00.977Z,101353.56
2022-11-01T10:21:42.441Z,101358.06
2022-11-01T10:24:22.794Z,101354.59
2022-11-01T10:26:56.134Z,101342.41
2022-11-01T10:29:33.642Z,101340.03
2022-11-01T10:32:04.666Z,101352.75
2022-11-01T10:34:39.602Z,101358.31
2022-11-01T10:37:26.312Z,101356.19
2022-11-01T10:40:18.538Z,101362.53
2022-11-01T10:42:45.181Z,101369.69
2022-11-01T10:45:17.619Z,101374.97
2022-11-01T10:47:46.247Z,101377.63
2022-11-01T10:50:20.595Z,101386.09
2022-11-01T10:52:55.504Z,101384.50
2022-11-01T10:55:34.776Z,101398.03
2022-11-01T10:58:19.636Z,101381.34
2022-11-01T11:00:46.913Z,101378.13
2022-11-01T11:03:25.433Z,101404.34
2022-11-01T11:05:54.323Z,101396.16
2022-11-01T11:08:24.427Z,101399.34
2022-11-01T11:10:51.443Z,101399.88
2022-11-01T11:13:26.007Z,101383.94
2022-11-01T11:16:02.175Z,101396.16
2022-11-01T11:18:37.447Z,101384.50
2022-11-01T11:21:11.508Z,101391.38
2022-11-01T11:23:45.796Z,101388.75
2022-11-01T11:26:17.474Z,101393.22
2022-11-01T11:28:54.906Z,101393.22
2022-11-01T11:31:28.948Z,101379.16
2022-11-01T11:34:17.760Z,101374.38
2022-11-01T11:36:48.030Z,101387.38
2022-11-01T11:39:59.047Z,101386.56
2022-11-01T11:42:26.699Z,101388.44
2022-11-01T11:45:19.501Z,101393.72
2022-11-01T11:47:49.614Z,101390.28
2022-11-01T11:50:23.594Z,101392.16
2022-11-01T11:53:02.531Z,101396.09
2022-11-01T11:55:43.574Z,101403.03
2022-11-01T11:58:22.033Z,101402.72
2022-11-01T12:00:52.373Z,101394.28
2022-11-01T12:03:20.337Z,101380.72
2022-11-01T12:06:00.118Z,101389.75
2022-11-01T12:08:44.744Z,101387.63
2022-11-01T12:11:12.848Z,101400.31
2022-11-01T12:13:42.666Z,101380.72
2022-11-01T12:16:09.308Z,101373.03
2022-11-01T12:18:49.018Z,101382.31
2022-11-01T12:21:20.411Z,101378.59
2022-11-01T12:23:52.978Z,101378.84
2022-11-01T12:26:22.597Z,101383.88
2022-11-01T12:28:58.626Z,101379.94
2022-11-01T12:31:31.039Z,101370.91
2022-11-01T12:34:21.666Z,101381.75
2022-11-01T12:37:00.016Z,101380.72
2022-11-01T12:39:53.263Z,101371.16
2022-11-01T12:42:32.375Z,101373.53
2022-11-01T12:45:22.014Z,101379.66
2022-11-01T12:47:57.112Z,101385.72
2022-11-01T12:50:55.528Z,101389.72
2022-11-01T12:53:51.574Z,101385.47
2022-11-01T12:56:18.556Z,101392.38
2022-11-01T12:58:45.355Z,101387.59
2022-11-01T13:01:23.883Z,101381.75
2022-11-01T13:04:21.179Z,101384.13
2022-11-01T13:07:05.915Z,101386.25
2022-11-01T13:09:54.254Z,101381.22
2022-11-01T13:12:36.103Z,101378.25
2022-11-01T13:15:24.244Z,101374.06
2022-11-01T13:18:19.363Z,101361.56
2022-11-01T13:20:58.274Z,101366.13
2022-11-01T13:23:41.509Z,101374.56
2022-11-01T13:26:25.966Z,101361.88
2022-11-01T13:29:08.151Z,101361.09
2022-11-01T13:32:00.880Z,101360.81
2022-11-01T13:34:45.672Z,101347.56
2022-11-01T13:37:36.642Z,101357.88
2022-11-01T13:40:18.459Z,101338.53
2022-11-01T13:42:59.780Z,101345.97
2022-11-01T13:45:42.803Z,101343.03
2022-11-01T13:48:21.284Z,101346.44
2022-11-01T13:51:14.201Z,101353.66
2022-11-01T13:53:48.866Z,101336.38
2022-11-01T13:56:36.927Z,101338.78
2022-11-01T13:59:13.570Z,101348.06
2022-11-01T14:01:40.570Z,101345.47
2022-11-01T14:04:16.372Z,101347.81
2022-11-01T14:06:51.443Z,101345.94
2022-11-01T14:09:20.339Z,101347.28
2022-11-01T14:11:54.827Z,101344.38
2022-11-01T14:14:30.656Z,101347.56
2022-11-01T14:17:16.016Z,101337.75
2022-11-01T14:19:43.253Z,101352.56
2022-11-01T14:22:32.605Z,101339.88
2022-11-01T14:28:17.433Z,101348.06
2022-11-01T14:30:53.295Z,101350.22
2022-11-01T14:33:22.126Z,101355.25
2022-11-01T14:35:57.719Z,101356.31
2022-11-01T14:38:33.859Z,101351.81
2022-11-01T14:41:01.594Z,101353.13
2022-11-01T14:43:45.231Z,101350.22
2022-11-01T14:46:23.392Z,101356.88
2022-11-01T14:49:05.264Z,101363.47
2022-11-01T14:51:34.989Z,101365.31
2022-11-01T14:54:20.055Z,101359.53
2022-11-01T14:56:55.699Z,101358.22
2022-11-01T14:59:28.476Z,101357.22
2022-11-01T15:02:03.047Z,101355.88
2022-11-01T15:04:33.132Z,101352.72
2022-11-01T15:07:00.606Z,101352.19
2022-11-01T15:09:30.383Z,101359.09
2022-11-01T15:12:14.193Z,101362.81
2022-11-01T15:14:46.420Z,101372.91
2022-11-01T15:17:22.764Z,101382.16
2022-11-01T15:19:53.083Z,101375.03
2022-11-01T15:22:23.709Z,101377.69
2022-11-01T15:25:04.569Z,101378.19
2022-11-01T15:27:42.874Z,101378.19
2022-11-01T15:30:20.719Z,101381.91
2022-11-01T15:32:53.784Z,101380.03
2022-11-01T15:35:24.129Z,101376.56
2022-11-01T15:37:54.917Z,101369.41
2022-11-01T15:40:30.119Z,101369.66
2022-11-01T15:43:00.820Z,101370.19
2022-11-01T15:45:38.508Z,101380.25
2022-11-01T15:48:20.014Z,101371.22
2022-11-01T15:50:57.394Z,101373.84
2022-11-01T15:53:30.255Z,101368.50
2022-11-01T15:56:17.906Z,101357.69
2022-11-01T15:58:55.626Z,101363.75
2022-11-01T16:01:24.263Z,101358.69
2022-11-01T16:04:09.061Z,101353.13
2022-11-01T16:06:47.350Z,101357.88
2022-11-01T16:09:22.895Z,101354.41
2022-11-01T16:11:49.701Z,101356.78
2022-11-01T16:14:38.108Z,101363.06
2022-11-01T16:17:25.081Z,101364.88
2022-11-01T16:19:52.704Z,101372.78
2022-11-01T16:23:01.403Z,101373.56
2022-11-01T16:25:31.219Z,101373.56
2022-11-01T16:28:00.107Z,101373.53
2022-11-01T16:30:41.999Z,101380.56
2022-11-01T16:33:35.460Z,101379.50
2022-11-01T16:36:35.695Z,101386.84
2022-11-01T16:39:22.692Z,101385.00
2022-11-01T16:41:49.269Z,101388.44
2022-11-01T16:44:16.486Z,101398.16
2022-11-01T16:46:43.236Z,101398.13
2022-11-01T16:49:24.873Z,101394.91
2022-11-01T16:51:54.388Z,101399.38
2022-11-01T16:54:20.893Z,101401.47
2022-11-01T16:56:51.428Z,101408.81
2022-11-01T16:59:29.833Z,101405.13
2022-11-01T17:02:00.264Z,101410.91
2022-11-01T17:04:28.437Z,101400.63
2022-11-01T17:06:57.982Z,101406.38
2022-11-01T17:09:27.378Z,101410.31
2022-11-01T17:11:54.366Z,101411.16
2022-11-01T17:14:22.151Z,101424.34
2022-11-01T17:16:51.132Z,101423.22
2022-11-01T17:19:32.866Z,101422.63
2022-11-01T17:22:04.343Z,101422.63
2022-11-01T17:24:33.281Z,101422.63
2022-11-01T17:27:05.177Z,101422.56
2022-11-01T17:29:32.759Z,101418.59
2022-11-01T17:32:00.832Z,101420.44
2022-11-01T17:34:28.909Z,101419.84
2022-11-01T17:36:57.188Z,101420.44
2022-11-01T17:39:28.464Z,101418.75
2022-11-01T17:41:55.442Z,101411.16
2022-11-01T17:44:22.764Z,101408.34
2022-11-01T17:46:49.265Z,101406.59
2022-11-01T17:49:16.692Z,101412.97
2022-11-01T17:51:43.355Z,101405.03
2022-11-01T17:54:10.101Z,101406.75
2022-11-01T17:56:36.658Z,101405.41
2022-11-01T17:59:03.231Z,101410.34
2022-11-01T18:01:30.375Z,101406.06
2022-11-01T18:03:56.984Z,101409.56
2022-11-01T18:06:23.971Z,101417.59
2022-11-01T18:08:52.409Z,101411.25
2022-11-01T18:11:38.187Z,101411.59
2022-11-01T18:14:27.838Z,101421.50
2022-11-01T18:17:04.824Z,101422.94
2022-11-01T18:19:47.893Z,101415.34
2022-11-01T18:22:53.311Z,101414.50
2022-11-01T18:25:39.340Z,101418.72
2022-11-01T18:28:30.095Z,101417.75
2022-11-01T18:31:27.137Z,101415.16
2022-11-01T18:34:28.831Z,101414.69
2022-11-01T18:37:23.894Z,101419.16
2022-11-01T18:40:16.582Z,101422.16
2022-11-01T18:42:46.165Z,101417.13
2022-11-01T18:45:31.060Z,101412.91
2022-11-01T18:48:15.686Z,101416.22
2022-11-01T18:50:42.520Z,101412.34
2022-11-01T18:53:13.348Z,101423.88
2022-11-01T18:55:41.338Z,101412.22
2022-11-01T18:58:18.804Z,101413.38
2022-11-01T19:00:45.644Z,101412.34
2022-11-01T19:03:17.639Z,101407.00
2022-11-01T19:05:46.027Z,101406.22
2022-11-01T19:08:24.305Z,101405.31
2022-11-01T19:10:52.870Z,101406.06
2022-11-01T19:13:34.364Z,101401.19
2022-11-01T19:16:02.479Z,101406.69
2022-11-01T19:18:29.805Z,101402.69
2022-11-01T19:20:58.910Z,101407.34
2022-11-01T19:23:38.859Z,101420.19
2022-11-01T19:26:35.757Z,101410.47
2022-11-01T19:29:18.503Z,101411.81
2022-11-01T19:31:51.100Z,101408.78
2022-11-01T19:34:25.398Z,101413.53
2022-11-01T19:36:52.675Z,101414.13
2022-11-01T19:39:21.729Z,101414.63
2022-11-01T19:41:48.887Z,101426.28
2022-11-01T19:44:21.338Z,101421.69
2022-11-01T19:46:48.943Z,101406.66
2022-11-01T19:49:36.943Z,101412.41
2022-11-01T19:52:27.757Z,101407.22
2022-11-01T19:54:54.450Z,101413.59
2022-11-01T19:57:37.516Z,101403.66
2022-11-01T20:00:17.412Z,101407.78
2022-11-01T20:02:44.070Z,101403.88
2022-11-01T20:05:36.618Z,101410.09
2022-11-01T20:08:23.251Z,101406.72
2022-11-01T20:10:49.768Z,101395.41
2022-11-01T20:13:16.284Z,101403.53
2022-11-01T20:15:42.873Z,101401.31
2022-11-01T20:18:09.853Z,101398.69
2022-11-01T20:20:37.073Z,101399.00
2022-11-01T20:23:25.299Z,101394.16
2022-11-01T20:25:50.392Z,101389.84
2022-11-01T20:28:16.901Z,101392.47
2022-11-01T20:30:43.376Z,101390.19
2022-11-01T20:33:10.100Z,101393.69
2022-11-01T20:35:36.611Z,101394.50
2022-11-01T20:38:03.080Z,101384.59
2022-11-01T20:40:29.579Z,101383.25
2022-11-01T20:42:56.756Z,101393.69
2022-11-01T20:45:23.288Z,101397.16
2022-11-01T20:47:51.084Z,101391.47
2022-11-01T20:50:18.931Z,101384.09
2022-11-01T20:52:45.532Z,101396.31
2022-11-01T20:55:12.773Z,101390.84
2022-11-01T20:57:39.599Z,101394.06
2022-11-01T21:00:12.517Z,101394.63
2022-11-01T21:02:40.185Z,101392.28
2022-11-01T21:05:26.302Z,101392.94
2022-11-01T21:08:15.023Z,101390.16
2022-11-01T21:10:43.145Z,101387.97
2022-11-01T21:13:35.073Z,101390.66
2022-11-01T21:16:03.951Z,101377.97
2022-11-01T21:18:34.131Z,101379.31
2022-11-01T21:21:15.752Z,101385.59
2022-11-01T21:23:46.327Z,101385.34
2022-11-01T21:26:17.907Z,101382.25
2022-11-01T21:28:53.238Z,101393.91
2022-11-01T21:31:37.586Z,101386.34
2022-11-01T21:34:09.995Z,101381.41
2022-11-01T21:36:43.211Z,101384.84
2022-11-01T21:39:28.759Z,101393.34
2022-11-01T21:42:03.718Z,101388.41
2022-11-01T21:44:35.147Z,101382.06
2022-11-01T21:47:18.080Z,101375.25
2022-11-01T21:49:44.747Z,101383.50
2022-11-01T21:54:43.295Z,101374.81
2022-11-01T21:57:11.299Z,101367.16
2022-11-01T21:59:37.893Z,101369.34
2022-11-01T22:02:06.351Z,101362.72
2022-11-01T22:04:33.350Z,101365.09
2022-11-01T22:07:02.159Z,101359.00
2022-11-01T22:09:29.747Z,101365.88
2022-11-01T22:11:56.549Z,101361.94
2022-11-01T22:14:23.168Z,101360.81
2022-11-01T22:16:49.695Z,101359.88
2022-11-01T22:19:16.543Z,101358.78
2022-11-01T22:24:15.333Z,101358.06
2022-11-01T22:26:41.918Z,101360.19
2022-11-01T22:29:08.423Z,101342.47
2022-11-01T22:31:34.951Z,101348.53
2022-11-01T22:34:01.757Z,101353.50
2022-11-01T22:36:30.977Z,101349.56
2022-11-01T22:38:59.792Z,101342.41
2022-11-01T22:41:33.702Z,101347.41
2022-11-01T22:44:11.762Z,101348.50
2022-11-01T22:46:52.209Z,101342.94
2022-11-01T22:49:24.352Z,101337.88
2022-11-01T22:51:54.965Z,101332.06
2022-11-01T22:54:38.739Z,101326.59
2022-11-01T22:57:07.873Z,101331.63
2022-11-01T22:59:39.813Z,101324.69
2022-11-01T23:02:25.650Z,101320.75
2022-11-01T23:05:12.451Z,101324.47
2022-11-01T23:07:46.368Z,101321.56
2022-11-01T23:10:27.234Z,101321.56
2022-11-01T23:13:30.540Z,101313.06
2022-11-01T23:16:02.076Z,101315.19
2022-11-01T23:18:32.690Z,101311.41
2022-11-01T23:21:02.842Z,101318.53
2022-11-01T23:23:29.502Z,101313.31
2022-11-01T23:26:00.659Z,101314.69
2022-11-01T23:28:28.597Z,101304.16
2022-11-01T23:30:56.410Z,101308.41
2022-11-01T23:33:48.982Z,101314.75
2022-11-01T23:36:33.015Z,101319.25
2022-11-01T23:39:06.797Z,101312.09
2022-11-01T23:41:34.666Z,101317.97
2022-11-01T23:44:10.661Z,101313.19
2022-11-01T23:46:37.183Z,101310.63
2022-11-01T23:49:16.625Z,101323.06
2022-11-01T23:51:43.125Z,101307.47
2022-11-01T23:54:19.961Z,101309.59
2022-11-01T23:56:46.468Z,101308.94
2022-11-01T23:59:13.108Z,101311.59
